Time;durP1;ratioP1;P1;durP2;ratioP2;P2;SDS_P1;SDS_P2;PMS_P1;PMS_P2;Temp;Humidity;BMP_temperature;BMP_pressure;BME280_temperature;BME280_humidity;BME280_pressure;Samples;Min_cycle;Max_cycle;Signal;HPM_P1;HPM_P2
2022/01/29 00:01:33;;;;;;;32.70;8.75;;;7.20;91.70;;;;;;5038124;28;20398;-71
2022/01/29 00:03:59;;;;;;;26.17;6.68;;;7.30;91.50;;;;;;5056222;28;20079;-71
2022/01/29 00:06:25;;;;;;;24.52;7.95;;;7.30;91.60;;;;;;5046102;28;20044;-70
2022/01/29 00:08:52;;;;;;;37.78;8.30;;;7.20;91.60;;;;;;5030943;28;20045;-71
2022/01/29 00:11:18;;;;;;;17.58;6.05;;;7.30;91.70;;;;;;5036674;28;20063;-70
2022/01/29 00:13:44;;;;;;;17.63;7.13;;;7.20;91.70;;;;;;5042059;28;20134;-71
2022/01/29 00:16:10;;;;;;;18.15;6.90;;;7.20;91.50;;;;;;5028828;28;20134;-70
2022/01/29 00:18:36;;;;;;;30.30;6.78;;;7.20;91.50;;;;;;5034487;28;20135;-70
2022/01/29 00:21:03;;;;;;;26.92;8.60;;;7.30;91.40;;;;;;5049610;28;20165;-70
2022/01/29 00:23:29;;;;;;;21.02;7.60;;;7.30;91.40;;;;;;5048488;28;20051;-71
2022/01/29 00:25:55;;;;;;;24.05;6.70;;;7.30;91.30;;;;;;5041344;28;20049;-71
2022/01/29 00:28:20;;;;;;;22.45;6.97;;;7.40;91.20;;;;;;5046644;28;20096;-70
2022/01/29 00:30:46;;;;;;;18.88;6.63;;;7.40;91.00;;;;;;5049628;28;20569;-71
2022/01/29 00:33:13;;;;;;;28.88;8.48;;;7.40;90.80;;;;;;5044637;28;20060;-71
2022/01/29 00:35:39;;;;;;;26.23;8.85;;;7.30;91.00;;;;;;5048546;28;20527;-71
2022/01/29 00:38:05;;;;;;;22.80;7.93;;;7.40;90.90;;;;;;5047210;28;20049;-70
2022/01/29 00:40:32;;;;;;;30.30;8.43;;;7.30;91.00;;;;;;5047243;28;20068;-71
2022/01/29 00:42:59;;;;;;;29.58;7.55;;;7.40;91.10;;;;;;5048559;28;20056;-69
2022/01/29 00:45:26;;;;;;;23.88;6.85;;;7.50;90.90;;;;;;5049315;28;20064;-70
2022/01/29 00:47:52;;;;;;;26.27;7.75;;;7.40;91.20;;;;;;5047686;28;20135;-70
2022/01/29 00:50:18;;;;;;;21.73;7.63;;;7.40;91.10;;;;;;5026480;28;20103;-71
2022/01/29 00:52:43;;;;;;;26.80;8.38;;;7.40;91.10;;;;;;5048122;28;20037;-71
2022/01/29 00:55:10;;;;;;;26.60;8.13;;;7.40;91.10;;;;;;5047476;28;20037;-71
2022/01/29 00:57:39;;;;;;;28.95;8.30;;;7.40;91.30;;;;;;5048127;28;20060;-71
2022/01/29 01:00:11;;;;;;;29.27;7.93;;;7.40;91.20;;;;;;5043763;28;20126;-71
2022/01/29 01:02:37;;;;;;;29.88;7.03;;;7.40;91.30;;;;;;5049174;28;20053;-71
2022/01/29 01:05:03;;;;;;;20.00;7.43;;;7.40;91.40;;;;;;5047449;28;20076;-71
2022/01/29 01:07:29;;;;;;;22.55;7.32;;;7.40;91.20;;;;;;5048773;28;20063;-71
2022/01/29 01:09:54;;;;;;;27.80;7.60;;;7.40;91.30;;;;;;5047266;28;20486;-71
2022/01/29 01:12:20;;;;;;;24.77;7.53;;;7.50;91.40;;;;;;5049246;28;20051;-71
2022/01/29 01:14:46;;;;;;;18.83;7.47;;;7.50;91.30;;;;;;5046486;28;20049;-70
2022/01/29 01:17:11;;;;;;;29.13;7.90;;;7.50;91.20;;;;;;5048499;28;20049;-70
2022/01/29 01:19:37;;;;;;;20.33;7.40;;;7.60;91.10;;;;;;5047888;28;20041;-71
2022/01/29 01:22:03;;;;;;;20.88;7.35;;;7.60;91.20;;;;;;5048494;28;20151;-70
2022/01/29 01:24:29;;;;;;;27.50;8.13;;;7.60;91.20;;;;;;5047682;28;20128;-71
2022/01/29 01:26:54;;;;;;;31.65;8.00;;;7.60;91.30;;;;;;5047441;28;20470;-71
2022/01/29 01:29:20;;;;;;;30.75;7.47;;;7.60;91.30;;;;;;5047690;28;20059;-70
2022/01/29 01:31:46;;;;;;;24.92;7.38;;;7.70;91.20;;;;;;5048280;28;20076;-70
2022/01/29 01:34:13;;;;;;;24.02;7.43;;;7.70;91.10;;;;;;5047775;28;20128;-70
2022/01/29 01:36:46;;;;;;;40.88;9.13;;;7.80;91.10;;;;;;5048718;28;20081;-71
2022/01/29 01:39:15;;;;;;;20.20;7.68;;;7.80;91.10;;;;;;5047901;28;20490;-71
2022/01/29 01:41:48;;;;;;;26.35;8.00;;;7.90;91.00;;;;;;5048286;28;20501;-71
2022/01/29 01:44:14;;;;;;;30.60;9.68;;;7.80;90.90;;;;;;5040960;28;20056;-71
2022/01/29 01:46:39;;;;;;;25.92;11.45;;;7.80;91.10;;;;;;5049706;28;20568;-71
2022/01/29 01:49:05;;;;;;;24.00;7.95;;;7.80;91.10;;;;;;5051668;28;20144;-71
2022/01/29 01:51:32;;;;;;;33.47;8.77;;;7.80;91.10;;;;;;5050508;28;20456;-71
2022/01/29 01:54:01;;;;;;;28.65;8.68;;;7.80;91.40;;;;;;5047396;28;20458;-71
2022/01/29 01:56:27;;;;;;;30.20;8.38;;;7.90;91.20;;;;;;5047122;28;20045;-71
2022/01/29 01:58:56;;;;;;;30.98;9.15;;;8.00;91.30;;;;;;5051627;28;20249;-71
2022/01/29 02:01:22;;;;;;;38.17;9.80;;;8.00;91.20;;;;;;5049427;28;20110;-70
2022/01/29 02:03:47;;;;;;;26.27;9.07;;;8.00;91.40;;;;;;5050975;28;20049;-70
2022/01/29 02:06:14;;;;;;;25.23;9.38;;;8.00;91.20;;;;;;5051925;28;20476;-71
2022/01/29 02:08:40;;;;;;;25.80;9.93;;;8.10;91.20;;;;;;5048810;28;20501;-70
2022/01/29 02:11:06;;;;;;;25.20;11.73;;;8.00;91.30;;;;;;5047671;28;20228;-70
2022/01/29 02:13:32;;;;;;;36.55;11.85;;;8.00;91.20;;;;;;5050672;28;20070;-70
2022/01/29 02:15:59;;;;;;;27.58;11.05;;;8.10;91.30;;;;;;5051156;28;20080;-70
2022/01/29 02:18:24;;;;;;;22.23;10.40;;;8.10;91.30;;;;;;5051104;28;20512;-70
2022/01/29 02:20:51;;;;;;;36.47;12.57;;;8.10;91.20;;;;;;5045297;28;20049;-70
2022/01/29 02:23:20;;;;;;;28.65;11.07;;;8.10;91.10;;;;;;5046491;28;20131;-70
2022/01/29 02:25:47;;;;;;;26.27;12.02;;;8.10;91.10;;;;;;5051860;28;20045;-70
2022/01/29 02:28:15;;;;;;;21.20;10.93;;;8.10;91.00;;;;;;5050461;28;20178;-70
2022/01/29 02:30:45;;;;;;;28.98;11.68;;;8.10;91.10;;;;;;5051520;28;20047;-71
2022/01/29 02:33:13;;;;;;;27.60;10.88;;;8.10;91.10;;;;;;5046314;28;20083;-70
2022/01/29 02:35:44;;;;;;;31.90;10.00;;;8.20;91.00;;;;;;5049159;28;20483;-70
2022/01/29 02:38:12;;;;;;;32.17;11.63;;;8.10;90.90;;;;;;5048972;28;20786;-70
2022/01/29 02:40:46;;;;;;;25.45;9.73;;;8.10;91.10;;;;;;5050224;28;20291;-70
2022/01/29 02:43:21;;;;;;;27.63;11.55;;;8.10;91.10;;;;;;5046376;28;20061;-70
2022/01/29 02:45:47;;;;;;;36.28;11.25;;;8.10;91.00;;;;;;5051252;28;20102;-70
2022/01/29 02:48:13;;;;;;;24.13;10.77;;;8.10;90.90;;;;;;5050332;28;20055;-70
2022/01/29 02:50:40;;;;;;;24.40;10.48;;;8.20;90.80;;;;;;5050364;28;20049;-70
2022/01/29 02:53:06;;;;;;;30.38;10.82;;;8.20;90.80;;;;;;5032318;28;20103;-70
2022/01/29 02:55:32;;;;;;;32.47;12.95;;;8.10;91.00;;;;;;5033042;28;20076;-70
2022/01/29 02:57:58;;;;;;;32.22;11.68;;;8.10;91.10;;;;;;5049543;28;20040;-71
2022/01/29 03:00:25;;;;;;;33.03;11.20;;;8.10;91.10;;;;;;5050725;28;20045;-70
2022/01/29 03:02:50;;;;;;;29.55;11.63;;;8.10;91.10;;;;;;5025494;28;20055;-70
2022/01/29 03:05:16;;;;;;;38.47;14.48;;;8.10;91.00;;;;;;5041725;28;20101;-70
2022/01/29 03:07:42;;;;;;;38.88;15.57;;;8.10;91.10;;;;;;5049408;28;20075;-70
2022/01/29 03:10:08;;;;;;;31.88;12.48;;;8.10;91.10;;;;;;5031775;28;20056;-70
2022/01/29 03:12:37;;;;;;;28.30;10.95;;;8.10;91.10;;;;;;5043738;28;20049;-70
2022/01/29 03:15:06;;;;;;;31.58;11.02;;;8.10;91.20;;;;;;5049103;28;20049;-70
2022/01/29 03:17:32;;;;;;;36.10;11.88;;;8.10;91.10;;;;;;5050430;28;20509;-71
2022/01/29 03:19:58;;;;;;;29.05;10.93;;;8.10;91.10;;;;;;5048715;28;20136;-70
2022/01/29 03:22:23;;;;;;;29.77;13.27;;;8.10;91.10;;;;;;5049775;28;20383;-70
2022/01/29 03:24:49;;;;;;;25.27;11.57;;;8.10;91.40;;;;;;5030932;28;20069;-70
2022/01/29 03:27:14;;;;;;;34.03;12.73;;;8.10;91.30;;;;;;5050714;28;20076;-70
2022/01/29 03:29:40;;;;;;;38.05;13.82;;;8.10;91.40;;;;;;5048854;28;20047;-70
2022/01/29 03:32:06;;;;;;;31.60;13.30;;;8.10;91.50;;;;;;5033397;28;20140;-70
2022/01/29 03:34:32;;;;;;;30.63;12.35;;;8.10;91.40;;;;;;5031506;28;20045;-70
2022/01/29 03:36:57;;;;;;;29.35;12.43;;;8.10;91.30;;;;;;5049469;28;20033;-71
2022/01/29 03:39:26;;;;;;;34.80;14.10;;;8.20;91.40;;;;;;5048360;28;20029;-70
2022/01/29 03:41:52;;;;;;;32.75;13.43;;;8.20;91.40;;;;;;5049537;28;20432;-70
2022/01/29 03:44:18;;;;;;;31.55;11.32;;;8.20;91.60;;;;;;5049569;28;20036;-70
2022/01/29 03:46:45;;;;;;;24.17;12.05;;;8.10;91.70;;;;;;5050423;28;20119;-70
2022/01/29 03:49:11;;;;;;;34.90;13.27;;;8.20;91.70;;;;;;5047914;28;20048;-70
2022/01/29 03:51:36;;;;;;;27.55;13.18;;;8.20;91.50;;;;;;5048060;28;20053;-70
2022/01/29 03:54:02;;;;;;;31.08;13.00;;;8.20;91.50;;;;;;5048796;28;20422;-71
2022/01/29 03:56:28;;;;;;;35.70;13.30;;;8.20;91.60;;;;;;5049903;28;20497;-71
2022/01/29 03:58:53;;;;;;;34.70;12.48;;;8.30;91.50;;;;;;5047744;28;20045;-70
2022/01/29 04:01:20;;;;;;;34.03;13.15;;;8.20;91.60;;;;;;5047450;28;20404;-70
2022/01/29 04:03:45;;;;;;;29.77;11.57;;;8.30;91.50;;;;;;5049778;28;20057;-70
2022/01/29 04:06:11;;;;;;;36.08;12.18;;;8.40;91.30;;;;;;5048660;28;20166;-70
2022/01/29 04:08:41;;;;;;;30.35;11.43;;;8.40;91.30;;;;;;5050158;28;20040;-70
2022/01/29 04:11:08;;;;;;;23.63;10.57;;;8.30;91.40;;;;;;5041671;28;20060;-70
2022/01/29 04:13:34;;;;;;;28.00;12.00;;;8.30;91.60;;;;;;5022912;28;20055;-70
2022/01/29 04:15:59;;;;;;;32.13;12.90;;;8.40;91.30;;;;;;5048639;28;20037;-70
2022/01/29 04:18:25;;;;;;;24.67;11.30;;;8.40;91.20;;;;;;5049171;28;20040;-70
2022/01/29 04:20:50;;;;;;;26.90;11.88;;;8.40;91.30;;;;;;5047577;28;20048;-70
2022/01/29 04:23:16;;;;;;;26.02;12.13;;;8.40;91.30;;;;;;5044420;28;20473;-70
2022/01/29 04:25:42;;;;;;;26.27;14.40;;;8.40;91.50;;;;;;5045439;28;20064;-71
2022/01/29 04:28:10;;;;;;;25.02;12.20;;;8.30;91.50;;;;;;5048429;28;20040;-70
2022/01/29 04:30:45;;;;;;;25.45;11.35;;;8.40;91.50;;;;;;5048730;28;20045;-70
2022/01/29 04:35:49;;;;;;;31.67;12.18;;;8.40;91.40;;;;;;5048671;28;20041;-70
2022/01/29 04:38:15;;;;;;;24.17;11.23;;;8.40;91.50;;;;;;5028411;28;20136;-70
2022/01/29 04:40:41;;;;;;;31.05;12.25;;;8.50;91.30;;;;;;5048849;28;20205;-71
2022/01/29 04:43:07;;;;;;;29.63;11.68;;;8.40;91.30;;;;;;5048458;28;20044;-71
2022/01/29 04:45:33;;;;;;;30.60;12.68;;;8.50;91.30;;;;;;5049075;28;20040;-71
2022/01/29 04:47:59;;;;;;;31.05;11.55;;;8.50;91.20;;;;;;5048235;28;20095;-71
2022/01/29 04:50:25;;;;;;;19.25;11.55;;;8.60;91.10;;;;;;5048350;28;20123;-71
2022/01/29 04:52:51;;;;;;;23.20;11.48;;;8.60;91.00;;;;;;5048484;28;20044;-71
2022/01/29 04:55:16;;;;;;;24.05;12.55;;;8.60;91.00;;;;;;5048804;28;20146;-71
2022/01/29 04:57:42;;;;;;;27.67;11.52;;;8.60;91.00;;;;;;5049178;28;20080;-71
2022/01/29 05:00:11;;;;;;;25.42;11.55;;;8.60;91.10;;;;;;5048341;28;20049;-71
2022/01/29 05:02:38;;;;;;;25.05;12.57;;;8.60;91.10;;;;;;5048507;28;20048;-70
2022/01/29 05:05:05;;;;;;;18.65;11.32;;;8.60;90.90;;;;;;5049087;28;20118;-70
2022/01/29 05:07:31;;;;;;;28.85;13.00;;;8.60;90.90;;;;;;5046518;28;20056;-70
2022/01/29 05:09:57;;;;;;;19.40;11.60;;;8.60;90.90;;;;;;5036833;28;20136;-71
2022/01/29 05:12:32;;;;;;;23.90;12.20;;;8.60;90.80;;;;;;5045063;28;20041;-71
2022/01/29 05:28:05;;;;;;;22.33;11.05;;;8.70;90.80;;;;;;5045636;28;20060;-71
2022/01/29 05:30:30;;;;;;;21.92;11.00;;;8.70;90.80;;;;;;5042860;28;20037;-71
2022/01/29 05:32:56;;;;;;;25.17;10.82;;;8.70;90.80;;;;;;5026465;28;20048;-71
2022/01/29 05:35:22;;;;;;;20.50;12.13;;;8.70;90.80;;;;;;5046448;28;20045;-71
2022/01/29 05:37:50;;;;;;;26.08;10.30;;;8.70;90.90;;;;;;5038500;28;20478;-71
2022/01/29 05:40:19;;;;;;;23.60;10.75;;;8.70;90.80;;;;;;5047874;28;20151;-71
2022/01/29 05:42:45;;;;;;;22.52;10.82;;;8.70;90.80;;;;;;5047969;28;20045;-71
2022/01/29 05:45:11;;;;;;;20.40;9.57;;;8.70;90.70;;;;;;5029663;28;20053;-71
2022/01/29 05:47:36;;;;;;;31.05;11.68;;;8.70;90.80;;;;;;5041609;28;20094;-71
2022/01/29 05:50:05;;;;;;;23.67;10.05;;;8.70;90.60;;;;;;5048210;28;20053;-70
2022/01/29 05:52:32;;;;;;;18.55;10.48;;;8.70;90.70;;;;;;5048337;28;20060;-71
2022/01/29 05:54:58;;;;;;;20.52;10.07;;;8.80;90.60;;;;;;5048303;28;20053;-71
2022/01/29 05:57:23;;;;;;;20.00;10.05;;;8.90;90.30;;;;;;5030108;28;20124;-71
2022/01/29 05:59:49;;;;;;;21.30;10.55;;;8.80;90.30;;;;;;5048154;28;20037;-71
2022/01/29 06:02:14;;;;;;;25.85;9.98;;;8.90;90.30;;;;;;5048063;28;20628;-71
2022/01/29 06:04:40;;;;;;;25.70;12.27;;;8.90;90.20;;;;;;5048384;28;20049;-71
2022/01/29 06:07:05;;;;;;;23.42;11.00;;;8.90;90.10;;;;;;5047212;28;20041;-71
2022/01/29 06:09:31;;;;;;;21.30;11.43;;;8.90;90.20;;;;;;5030231;28;20065;-71
2022/01/29 06:11:57;;;;;;;26.38;11.75;;;8.90;90.10;;;;;;5047619;28;20037;-71
2022/01/29 06:14:22;;;;;;;23.95;11.18;;;8.90;90.20;;;;;;5042875;28;20041;-71
2022/01/29 06:16:48;;;;;;;21.80;11.18;;;8.90;90.30;;;;;;5048200;28;20045;-71
2022/01/29 06:19:13;;;;;;;24.10;10.93;;;8.80;90.20;;;;;;5048204;28;20049;-71
2022/01/29 06:21:39;;;;;;;27.65;11.65;;;8.90;90.20;;;;;;5047064;28;20045;-71
2022/01/29 06:24:05;;;;;;;19.35;9.73;;;8.90;90.20;;;;;;5048281;28;20056;-71
2022/01/29 06:26:31;;;;;;;19.63;10.00;;;8.80;90.30;;;;;;5047938;28;20045;-71
2022/01/29 06:28:59;;;;;;;21.73;11.82;;;8.90;90.10;;;;;;5047076;28;20099;-71
2022/01/29 06:31:24;;;;;;;24.67;10.30;;;8.80;90.20;;;;;;5047650;28;20051;-71
2022/01/29 06:33:50;;;;;;;21.40;9.95;;;8.80;90.20;;;;;;5049416;28;20502;-70
2022/01/29 06:36:16;;;;;;;24.75;10.98;;;8.90;90.30;;;;;;5051088;28;20048;-71
2022/01/29 06:38:41;;;;;;;24.10;9.82;;;8.80;90.30;;;;;;5051416;28;20049;-71
2022/01/29 06:41:07;;;;;;;19.92;10.13;;;8.80;90.40;;;;;;5049567;28;20122;-70
2022/01/29 06:43:32;;;;;;;17.30;9.30;;;8.90;90.20;;;;;;5051590;28;20037;-71
2022/01/29 06:45:58;;;;;;;20.05;10.45;;;8.90;90.30;;;;;;5043470;28;20080;-71
2022/01/29 06:48:24;;;;;;;21.85;8.63;;;8.90;90.10;;;;;;5044522;28;20417;-71
2022/01/29 06:50:50;;;;;;;22.55;11.02;;;8.90;90.10;;;;;;5049662;28;20041;-71
2022/01/29 06:53:15;;;;;;;14.18;10.23;;;8.80;90.30;;;;;;5051551;28;20091;-71
2022/01/29 06:55:41;;;;;;;18.52;9.48;;;8.80;90.20;;;;;;5050766;28;20045;-69
2022/01/29 06:58:06;;;;;;;26.75;10.23;;;8.80;90.30;;;;;;5050933;28;20128;-69
2022/01/29 07:00:32;;;;;;;17.10;9.23;;;8.80;90.30;;;;;;5049326;28;20111;-72
2022/01/29 07:02:58;;;;;;;25.88;10.23;;;8.80;90.20;;;;;;5050613;28;20060;-72
2022/01/29 07:05:23;;;;;;;18.83;8.57;;;8.80;90.20;;;;;;5049520;28;20244;-71
2022/01/29 07:07:49;;;;;;;17.52;9.35;;;8.70;90.30;;;;;;5050604;28;20472;-71
2022/01/29 07:10:16;;;;;;;17.83;8.50;;;8.80;90.40;;;;;;5033730;28;20331;-70
2022/01/29 07:12:42;;;;;;;16.98;9.10;;;8.80;90.40;;;;;;5050676;28;20524;-71
2022/01/29 07:15:09;;;;;;;21.73;8.90;;;8.80;90.30;;;;;;5050424;28;20049;-71
2022/01/29 07:17:36;;;;;;;24.25;9.93;;;8.80;90.20;;;;;;5052635;28;20429;-71
2022/01/29 07:20:03;;;;;;;24.50;9.10;;;8.80;90.40;;;;;;5047437;28;20107;-71
2022/01/29 07:22:28;;;;;;;23.35;8.40;;;8.80;90.40;;;;;;5019935;28;20125;-71
2022/01/29 07:24:54;;;;;;;16.48;8.32;;;8.80;90.30;;;;;;5036033;28;20120;-71
2022/01/29 07:27:20;;;;;;;17.08;8.10;;;8.80;90.10;;;;;;5049988;28;20045;-71
2022/01/29 07:29:45;;;;;;;19.52;9.23;;;8.80;90.30;;;;;;5049987;28;20049;-71
2022/01/29 07:32:11;;;;;;;24.77;9.57;;;8.90;90.30;;;;;;5047118;28;20057;-71
2022/01/29 07:34:37;;;;;;;16.98;7.68;;;8.90;90.20;;;;;;5048721;28;20478;-71
2022/01/29 07:37:03;;;;;;;18.60;8.02;;;8.90;90.00;;;;;;5050042;28;20091;-71
2022/01/29 07:39:29;;;;;;;20.30;8.60;;;8.90;90.20;;;;;;5050086;28;20045;-71
2022/01/29 07:41:55;;;;;;;19.95;7.80;;;8.90;90.10;;;;;;5049517;28;20040;-71
2022/01/29 07:44:21;;;;;;;16.15;7.60;;;9.00;90.10;;;;;;5048888;28;20037;-71
2022/01/29 07:46:47;;;;;;;14.05;7.60;;;8.90;90.30;;;;;;5048919;28;20364;-68
2022/01/29 07:49:12;;;;;;;11.48;7.22;;;8.80;90.30;;;;;;5049767;28;20087;-70
2022/01/29 07:51:39;;;;;;;18.98;7.55;;;8.90;90.30;;;;;;5048775;28;20053;-70
2022/01/29 07:54:06;;;;;;;20.30;8.90;;;8.90;90.20;;;;;;5049656;28;20045;-69
2022/01/29 07:56:32;;;;;;;16.77;7.43;;;8.80;90.30;;;;;;5049917;28;20037;-70
2022/01/29 07:58:57;;;;;;;14.43;7.18;;;8.90;90.30;;;;;;5050030;28;20090;-70
2022/01/29 08:01:23;;;;;;;21.98;7.43;;;8.90;90.40;;;;;;5031893;28;20478;-70
2022/01/29 08:03:50;;;;;;;22.63;7.78;;;8.90;90.40;;;;;;5047812;28;20191;-69
2022/01/29 08:06:18;;;;;;;20.13;7.15;;;8.90;90.20;;;;;;5049841;28;20559;-70
2022/01/29 08:08:44;;;;;;;13.95;6.57;;;8.90;90.20;;;;;;5049353;28;20029;-68
2022/01/29 08:11:11;;;;;;;18.85;8.50;;;8.90;90.20;;;;;;5049679;28;20041;-69
2022/01/29 08:13:37;;;;;;;17.92;6.78;;;9.00;90.10;;;;;;5049013;28;20398;-68
2022/01/29 08:16:03;;;;;;;10.93;6.28;;;8.90;90.30;;;;;;5049549;28;20037;-69
2022/01/29 08:18:29;;;;;;;14.15;5.60;;;8.90;90.20;;;;;;5049466;28;20110;-69
2022/01/29 08:20:55;;;;;;;14.23;5.80;;;8.90;90.40;;;;;;5049086;28;20482;-69
2022/01/29 08:23:21;;;;;;;16.30;5.72;;;8.90;90.30;;;;;;5048984;28;20041;-70
2022/01/29 08:25:46;;;;;;;16.08;5.72;;;9.00;90.30;;;;;;5049857;28;20033;-70
2022/01/29 08:28:12;;;;;;;25.38;7.72;;;9.10;90.20;;;;;;5048832;28;20049;-71
2022/01/29 08:30:38;;;;;;;20.17;6.93;;;9.10;90.00;;;;;;5047525;28;20102;-71
2022/01/29 08:33:06;;;;;;;22.50;5.78;;;9.00;90.00;;;;;;5031342;28;20140;-71
2022/01/29 08:35:32;;;;;;;15.80;6.22;;;9.10;90.20;;;;;;5048512;28;20107;-70
2022/01/29 08:37:58;;;;;;;14.52;5.40;;;9.10;90.00;;;;;;5047394;28;20048;-69
2022/01/29 08:40:24;;;;;;;16.05;5.57;;;9.20;89.90;;;;;;5047935;28;20468;-70
2022/01/29 08:42:50;;;;;;;14.02;5.20;;;9.10;90.00;;;;;;5049312;28;20041;-70
2022/01/29 08:45:16;;;;;;;14.90;5.45;;;9.20;89.70;;;;;;5049024;28;20772;-71
2022/01/29 08:47:42;;;;;;;15.45;6.00;;;9.20;89.90;;;;;;5049265;28;20405;-68
2022/01/29 08:50:10;;;;;;;16.33;5.40;;;9.20;89.80;;;;;;5048880;28;20041;-70
2022/01/29 08:52:37;;;;;;;17.75;5.43;;;9.20;89.90;;;;;;5048313;28;20053;-71
2022/01/29 08:55:04;;;;;;;18.25;5.50;;;9.20;89.70;;;;;;5047579;28;20124;-71
2022/01/29 08:57:30;;;;;;;15.10;5.55;;;9.20;89.80;;;;;;5048406;28;20571;-72
2022/01/29 08:59:56;;;;;;;13.40;5.50;;;9.30;89.60;;;;;;5047642;28;20044;-72
2022/01/29 09:02:23;;;;;;;9.82;4.80;;;9.30;89.60;;;;;;5044816;28;20133;-69
2022/01/29 09:04:48;;;;;;;12.77;5.50;;;9.20;89.70;;;;;;5047256;28;20084;-70
2022/01/29 09:07:14;;;;;;;13.05;4.93;;;9.30;89.50;;;;;;5048221;28;20409;-72
2022/01/29 09:09:44;;;;;;;14.45;4.93;;;9.30;89.60;;;;;;5046090;28;20048;-68
2022/01/29 09:12:10;;;;;;;13.80;4.40;;;9.30;89.50;;;;;;5047192;28;20508;-69
2022/01/29 09:14:36;;;;;;;13.52;4.22;;;9.40;89.60;;;;;;5048651;28;20360;-68
2022/01/29 09:17:02;;;;;;;15.25;4.50;;;9.40;89.40;;;;;;5048005;28;20048;-68
2022/01/29 09:19:27;;;;;;;10.52;4.43;;;9.30;89.70;;;;;;5047656;28;20083;-69
2022/01/29 09:21:53;;;;;;;12.13;4.20;;;9.30;89.70;;;;;;5048348;28;20076;-68
2022/01/29 09:24:19;;;;;;;12.00;5.00;;;9.40;89.60;;;;;;5047160;28;20039;-69
2022/01/29 09:26:44;;;;;;;17.80;4.05;;;9.40;89.60;;;;;;5048143;28;20045;-69
2022/01/29 09:29:10;;;;;;;7.78;3.65;;;9.40;89.60;;;;;;5048309;28;20045;-68
2022/01/29 09:31:36;;;;;;;14.75;5.15;;;9.50;89.50;;;;;;5048149;28;20055;-69
2022/01/29 09:34:02;;;;;;;9.70;3.22;;;9.40;89.70;;;;;;5048385;28;20151;-69
2022/01/29 09:36:28;;;;;;;13.27;4.15;;;9.50;89.50;;;;;;5046022;28;20445;-68
2022/01/29 09:38:54;;;;;;;12.70;4.13;;;9.50;89.40;;;;;;5019683;28;20127;-68
2022/01/29 09:41:24;;;;;;;13.80;4.10;;;9.60;89.30;;;;;;5047620;28;20160;-68
2022/01/29 09:43:52;;;;;;;13.05;4.40;;;9.60;89.20;;;;;;5048237;28;20044;-68
2022/01/29 09:46:18;;;;;;;8.63;3.72;;;9.60;89.10;;;;;;5048258;28;20136;-68
2022/01/29 09:48:44;;;;;;;12.77;3.95;;;9.60;89.20;;;;;;5048023;28;20127;-68
2022/01/29 09:51:13;;;;;;;14.98;3.25;;;9.60;89.00;;;;;;5048075;28;20060;-67
2022/01/29 09:53:43;;;;;;;9.90;3.33;;;9.60;89.10;;;;;;5047439;28;20413;-68
2022/01/29 09:56:10;;;;;;;17.60;3.88;;;9.60;88.80;;;;;;5048218;28;20110;-67
2022/01/29 09:58:36;;;;;;;14.43;3.75;;;9.60;88.90;;;;;;5047689;28;20136;-67
2022/01/29 10:01:02;;;;;;;11.45;3.33;;;9.60;89.00;;;;;;5048294;28;20045;-68
2022/01/29 10:03:28;;;;;;;11.55;3.53;;;9.60;88.80;;;;;;5048382;28;20060;-67
2022/01/29 10:05:55;;;;;;;11.13;3.38;;;9.70;88.50;;;;;;5048449;28;20397;-68
2022/01/29 10:08:22;;;;;;;10.50;2.97;;;9.80;88.60;;;;;;5050970;28;20059;-67
2022/01/29 10:10:50;;;;;;;14.45;5.40;;;9.90;88.30;;;;;;5050288;28;20413;-68
2022/01/29 10:13:22;;;;;;;11.93;3.50;;;9.90;88.10;;;;;;5052204;28;20137;-68
2022/01/29 10:15:49;;;;;;;16.05;3.33;;;9.90;88.10;;;;;;5051913;28;20504;-68
2022/01/29 10:18:22;;;;;;;11.00;3.33;;;9.90;88.00;;;;;;5052021;28;20049;-68
2022/01/29 10:20:49;;;;;;;18.23;4.95;;;10.00;87.70;;;;;;5051916;28;20041;-68
2022/01/29 10:23:14;;;;;;;11.10;3.03;;;10.00;87.60;;;;;;5051173;28;20624;-68
2022/01/29 10:25:43;;;;;;;9.27;3.38;;;10.10;87.20;;;;;;5051853;28;20064;-68
2022/01/29 10:28:14;;;;;;;10.45;3.10;;;10.10;87.50;;;;;;5051699;28;20088;-67
2022/01/29 10:30:49;;;;;;;13.65;3.20;;;10.00;87.60;;;;;;5051409;28;20148;-68
2022/01/29 10:33:28;;;;;;;11.60;3.10;;;10.00;87.60;;;;;;5050673;28;20568;-68
2022/01/29 10:36:05;;;;;;;21.27;3.70;;;10.00;87.50;;;;;;5051587;28;20204;-68
2022/01/29 10:38:40;;;;;;;16.30;4.05;;;10.00;87.60;;;;;;5049801;28;20536;-68
2022/01/29 10:41:10;;;;;;;15.15;4.47;;;9.90;87.50;;;;;;5051092;28;20041;-67
2022/01/29 10:43:36;;;;;;;16.20;4.65;;;10.00;87.50;;;;;;5052239;28;20040;-68
2022/01/29 10:46:02;;;;;;;14.43;3.38;;;10.00;87.80;;;;;;5052070;28;20052;-68
2022/01/29 10:48:43;;;;;;;18.70;5.10;;;10.10;87.60;;;;;;5052035;28;20052;-68
2022/01/29 10:51:13;;;;;;;12.32;3.03;;;10.10;87.30;;;;;;5051819;28;20494;-68
2022/01/29 10:53:39;;;;;;;12.68;3.40;;;10.10;87.20;;;;;;5051745;28;20551;-68
2022/01/29 10:56:04;;;;;;;13.15;3.15;;;10.20;87.00;;;;;;5051653;28;20041;-68
2022/01/29 10:58:38;;;;;;;18.08;4.38;;;10.10;86.70;;;;;;5051650;28;20045;-68
2022/01/29 11:01:24;;;;;;;15.18;3.47;;;10.10;86.90;;;;;;5051105;28;20076;-68
2022/01/29 11:03:54;;;;;;;9.75;2.97;;;10.20;86.60;;;;;;5051375;28;20452;-68
2022/01/29 11:06:23;;;;;;;10.90;2.55;;;10.20;86.20;;;;;;5054512;28;20037;-69
2022/01/29 11:08:48;;;;;;;10.30;2.85;;;10.20;86.00;;;;;;5056822;28;20041;-68
2022/01/29 11:11:16;;;;;;;12.18;3.67;;;10.20;86.10;;;;;;5055561;28;20048;-68
2022/01/29 11:13:43;;;;;;;9.75;2.75;;;10.30;86.10;;;;;;5055314;28;20048;-68
2022/01/29 11:16:10;;;;;;;16.17;3.25;;;10.30;85.60;;;;;;5070061;28;20512;-68
2022/01/29 11:18:36;;;;;;;10.00;2.40;;;10.30;85.70;;;;;;5059672;28;20084;-68
2022/01/29 11:21:03;;;;;;;18.27;4.75;;;10.40;85.30;;;;;;5049612;28;20559;-68
2022/01/29 11:23:30;;;;;;;7.30;2.33;;;10.40;85.20;;;;;;5049774;28;20414;-68
2022/01/29 11:25:58;;;;;;;11.90;2.47;;;10.40;85.30;;;;;;5051097;28;20044;-68
2022/01/29 11:28:28;;;;;;;12.20;4.25;;;10.40;85.30;;;;;;5049879;28;20052;-68
2022/01/29 11:31:13;;;;;;;10.20;2.88;;;10.50;85.00;;;;;;5051020;28;20048;-68
2022/01/29 11:34:13;;;;;;;7.22;2.20;;;10.60;84.50;;;;;;5050699;28;20053;-68
2022/01/29 11:36:48;;;;;;;11.55;3.00;;;10.60;84.80;;;;;;5050691;28;20571;-68
2022/01/29 11:39:24;;;;;;;7.38;2.20;;;10.60;84.40;;;;;;5049684;28;20393;-68
2022/01/29 11:42:15;;;;;;;16.30;2.72;;;10.60;84.40;;;;;;5050335;28;20053;-68
2022/01/29 11:44:42;;;;;;;13.13;3.00;;;10.60;84.30;;;;;;5050826;28;20053;-68
2022/01/29 11:47:26;;;;;;;10.45;2.60;;;10.60;84.40;;;;;;5049795;28;20041;-68
2022/01/29 11:49:53;;;;;;;11.60;3.58;;;10.70;84.20;;;;;;5049819;28;20557;-68
2022/01/29 11:52:23;;;;;;;14.50;3.17;;;10.70;84.20;;;;;;5048468;28;20279;-68
2022/01/29 11:55:05;;;;;;;15.40;2.70;;;10.70;83.90;;;;;;5048860;28;20405;-68
2022/01/29 11:57:31;;;;;;;10.48;2.40;;;10.70;83.70;;;;;;5049405;28;20117;-68
2022/01/29 12:00:35;;;;;;;10.10;2.70;;;10.70;84.00;;;;;;5049069;28;20099;-68
2022/01/29 12:03:01;;;;;;;10.98;3.00;;;10.70;83.70;;;;;;5048827;28;20551;-68
2022/01/29 12:05:30;;;;;;;11.30;3.03;;;10.70;83.70;;;;;;5048657;28;20037;-68
2022/01/29 12:08:14;;;;;;;10.75;2.72;;;10.70;83.80;;;;;;5048871;28;20171;-69
2022/01/29 12:10:52;;;;;;;13.60;3.70;;;10.80;83.90;;;;;;5048694;28;20390;-68
2022/01/29 12:13:17;;;;;;;14.43;4.28;;;10.70;83.90;;;;;;5047390;28;20106;-68
2022/01/29 12:15:43;;;;;;;15.75;3.08;;;10.80;83.60;;;;;;5047441;28;20481;-68
2022/01/29 12:18:25;;;;;;;12.57;2.80;;;10.80;83.90;;;;;;5049308;28;20070;-68
2022/01/29 12:20:51;;;;;;;9.23;2.53;;;10.80;83.90;;;;;;5047407;28;20087;-68
2022/01/29 12:23:16;;;;;;;8.70;2.85;;;10.90;83.50;;;;;;5050126;28;20478;-68
2022/01/29 12:25:50;;;;;;;17.42;4.13;;;10.80;83.50;;;;;;5048920;28;20029;-69
2022/01/29 12:28:15;;;;;;;13.32;3.67;;;10.90;83.50;;;;;;5050568;28;20406;-68
2022/01/29 12:30:41;;;;;;;12.55;2.63;;;10.90;83.90;;;;;;5049744;28;20036;-68
2022/01/29 12:33:12;;;;;;;14.63;3.03;;;10.90;83.60;;;;;;5049355;28;20153;-68
2022/01/29 12:35:49;;;;;;;11.80;3.13;;;10.90;83.60;;;;;;5053316;28;20082;-68
2022/01/29 12:38:19;;;;;;;17.65;5.13;;;10.90;83.60;;;;;;5031794;28;20045;-68
2022/01/29 12:41:24;;;;;;;16.27;3.33;;;10.80;83.80;;;;;;5048469;28;20040;-68
2022/01/29 12:43:54;;;;;;;15.93;2.97;;;10.80;83.90;;;;;;5049372;28;20393;-68
2022/01/29 12:46:25;;;;;;;16.55;3.60;;;10.80;83.50;;;;;;5049000;28;20041;-67
2022/01/29 12:49:20;;;;;;;20.13;3.40;;;10.70;83.80;;;;;;5049184;28;20255;-68
2022/01/29 12:51:52;;;;;;;16.00;3.40;;;10.70;84.00;;;;;;5048523;28;20506;-68
2022/01/29 12:54:18;;;;;;;16.00;3.50;;;10.70;84.00;;;;;;5052708;28;20128;-67
2022/01/29 12:56:44;;;;;;;19.35;3.88;;;10.60;84.10;;;;;;5061287;28;20799;-66
2022/01/29 12:59:12;;;;;;;16.00;3.63;;;10.60;84.40;;;;;;5052263;28;20087;-68